Time;durP1;ratioP1;P1;durP2;ratioP2;P2;SDS_P1;SDS_P2;PMS_P1;PMS_P2;Temp;Humidity;BMP_temperature;BMP_pressure;BME280_temperature;BME280_humidity;BME280_pressure;Samples;Min_cycle;Max_cycle;Signal;HPM_P1;HPM_P2
2021/12/02 00:01:18;;;;;;;11.15;3.97;;;;;;;4.18;91.13;99914.59;5035760;28;20036;-74
2021/12/02 00:03:44;;;;;;;12.65;3.92;;;;;;;4.19;90.74;99926.69;5046371;28;20041;-74
2021/12/02 00:06:13;;;;;;;13.15;4.20;;;;;;;4.18;90.91;99930.06;5034450;28;20068;-74
2021/12/02 00:08:39;;;;;;;12.97;4.30;;;;;;;4.19;90.92;99926.69;5032048;28;20025;-74
2021/12/02 00:11:04;;;;;;;13.77;3.55;;;;;;;4.20;90.74;99928.44;5037202;28;20287;-74
2021/12/02 00:13:37;;;;;;;12.50;3.70;;;;;;;4.20;90.87;99925.88;5034901;28;20026;-74
2021/12/02 00:16:17;;;;;;;13.80;3.60;;;;;;;4.21;90.88;99935.34;5030266;28;20025;-74
2021/12/02 00:21:21;;;;;;;13.70;3.30;;;;;;;4.22;90.60;99919.03;5034329;28;20320;-74
2021/12/02 00:24:00;;;;;;;11.75;3.17;;;;;;;4.21;89.75;99935.34;5064034;28;20021;-74
2021/12/02 00:26:27;;;;;;;12.95;2.60;;;;;;;4.20;89.34;99931.03;5035468;28;20045;-74
2021/12/02 00:28:55;;;;;;;10.88;2.70;;;;;;;4.17;89.65;99929.22;5033821;28;20046;-74
2021/12/02 00:31:23;;;;;;;8.93;2.60;;;;;;;4.16;89.66;99922.28;5031215;28;20028;-74
2021/12/02 00:33:51;;;;;;;13.05;2.40;;;;;;;4.16;89.36;99922.28;5032697;28;20029;-74
2021/12/02 00:36:19;;;;;;;10.32;2.42;;;;;;;4.17;89.59;99918.91;5038768;28;20180;-73
2021/12/02 00:38:47;;;;;;;11.57;2.10;;;;;;;4.17;89.13;99910.25;5040963;28;20017;-74
2021/12/02 00:41:15;;;;;;;8.13;1.70;;;;;;;4.18;88.71;99912.03;5036107;28;20048;-74
2021/12/02 00:43:40;;;;;;;8.80;1.67;;;;;;;4.17;88.96;99907.69;5033642;28;20241;-74
2021/12/02 00:46:10;;;;;;;10.77;1.58;;;;;;;4.17;89.28;99916.31;5076066;28;20025;-74
2021/12/02 00:48:36;;;;;;;;;;;;;;;4.22;89.63;99915.59;5045176;28;20097;-74
2021/12/02 00:51:03;;;;;;;8.32;1.52;;;;;;;4.17;88.85;99912.84;5046015;28;19946;-73
2021/12/02 00:53:31;;;;;;;5.68;1.38;;;;;;;4.17;89.43;99913.75;5045489;28;20057;-74
2021/12/02 00:56:01;;;;;;;16.45;2.65;;;;;;;4.18;89.75;99918.06;5045880;28;20018;-74
2021/12/02 00:58:26;;;;;;;12.98;2.20;;;;;;;4.17;89.51;99913.75;5045609;28;20312;-73
2021/12/02 01:00:52;;;;;;;10.63;2.28;;;;;;;4.17;90.10;99911.16;5045597;28;20035;-73
2021/12/02 01:03:19;;;;;;;11.75;1.90;;;;;;;4.17;90.07;99908.59;5045346;28;20029;-73
2021/12/02 01:05:44;;;;;;;13.88;2.10;;;;;;;4.18;90.08;99917.19;5044058;28;20021;-73
2021/12/02 01:08:10;;;;;;;10.18;2.13;;;;;;;4.16;89.98;99918.84;5045745;28;20290;-73
2021/12/02 01:10:36;;;;;;;7.70;2.13;;;;;;;4.15;90.11;99914.50;5043784;28;20032;-74
2021/12/02 01:13:02;;;;;;;9.43;2.20;;;;;;;4.16;90.07;99926.59;5043280;28;20100;-73
2021/12/02 01:15:27;;;;;;;12.38;2.95;;;;;;;4.17;90.35;99920.56;5038061;28;20040;-73
2021/12/02 01:17:53;;;;;;;12.57;2.40;;;;;;;4.17;90.55;99925.72;5038409;28;20045;-73
2021/12/02 01:20:19;;;;;;;10.05;2.45;;;;;;;4.17;90.35;99923.16;5035970;28;20036;-73
2021/12/02 01:22:47;;;;;;;12.82;2.50;;;;;;;4.18;90.83;99922.34;5040648;28;20216;-73
2021/12/02 01:25:15;;;;;;;14.03;2.30;;;;;;;4.18;90.65;99923.22;5037478;28;20021;-74
2021/12/02 01:27:45;;;;;;;9.38;2.30;;;;;;;4.19;90.49;99929.25;5043217;28;20033;-73
2021/12/02 01:30:10;;;;;;;10.45;2.10;;;;;;;4.18;90.19;99924.91;5031977;28;20013;-74
2021/12/02 01:32:38;;;;;;;10.52;2.13;;;;;;;4.19;90.51;99931.84;5037256;28;20036;-74
2021/12/02 01:35:04;;;;;;;9.55;1.83;;;;;;;4.20;90.93;99936.19;5041993;28;20096;-73
2021/12/02 01:37:31;;;;;;;11.63;2.03;;;;;;;4.21;90.77;99930.19;5042366;28;20045;-73
2021/12/02 01:39:57;;;;;;;13.73;1.95;;;;;;;4.21;91.00;99929.31;5042726;28;20042;-73
2021/12/02 01:42:24;;;;;;;8.13;1.70;;;;;;;4.21;91.03;99935.34;5042751;28;20033;-73
2021/12/02 01:44:55;;;;;;;10.05;2.08;;;;;;;4.21;90.42;99945.66;5075727;28;20052;-73
2021/12/02 01:47:27;;;;;;;6.25;1.40;;;;;;;4.21;90.55;99945.66;5041280;28;20061;-74
2021/12/02 01:49:57;;;;;;;8.48;1.38;;;;;;;4.22;90.20;99936.22;5036854;28;20260;-74
2021/12/02 01:52:30;;;;;;;9.45;1.67;;;;;;;4.21;89.97;99939.63;5042809;28;20053;-73
2021/12/02 01:55:05;;;;;;;6.82;1.45;;;;;;;4.19;90.25;99944.72;5036536;28;20061;-74
2021/12/02 01:57:32;;;;;;;7.93;1.40;;;;;;;4.16;89.88;99942.91;5066913;28;20036;-74
2021/12/02 02:00:08;;;;;;;5.15;1.60;;;;;;;4.14;90.10;99943.69;5041531;28;20053;-74
2021/12/02 02:02:38;;;;;;;9.10;1.88;;;;;;;4.12;90.32;99945.34;5042916;28;20063;-74
2021/12/02 02:05:08;;;;;;;4.25;1.48;;;;;;;4.09;90.28;99946.09;5043682;28;20061;-73
2021/12/02 02:07:35;;;;;;;6.75;2.00;;;;;;;4.08;90.05;99941.75;5043222;28;20168;-74
2021/12/02 02:10:01;;;;;;;7.07;1.90;;;;;;;4.06;90.07;99945.13;5043743;28;20051;-74
2021/12/02 02:12:26;;;;;;;7.50;1.83;;;;;;;4.00;89.93;99951.81;5044153;28;20029;-74
2021/12/02 02:14:52;;;;;;;6.47;2.13;;;;;;;3.94;89.80;99945.56;5044252;28;20028;-74
2021/12/02 02:17:30;;;;;;;5.00;1.85;;;;;;;3.87;89.88;99944.47;5043999;28;20307;-74
2021/12/02 02:19:57;;;;;;;11.00;2.50;;;;;;;3.82;90.03;99946.00;5044112;28;20051;-74
2021/12/02 02:22:23;;;;;;;8.10;2.53;;;;;;;3.78;89.99;99939.88;5043856;28;20033;-74
2021/12/02 02:24:50;;;;;;;8.48;2.58;;;;;;;3.76;90.61;99938.03;5043542;28;20053;-74
2021/12/02 02:27:15;;;;;;;9.20;2.88;;;;;;;3.73;90.21;99940.53;5037973;28;20025;-74
2021/12/02 02:29:41;;;;;;;10.85;3.58;;;;;;;3.72;90.17;99933.59;5035933;28;20218;-74
2021/12/02 02:32:07;;;;;;;7.18;3.28;;;;;;;3.67;90.17;99930.00;5038947;28;20087;-74
2021/12/02 02:34:32;;;;;;;10.93;3.13;;;;;;;3.61;89.95;99925.50;5040335;28;20040;-74
2021/12/02 02:37:01;;;;;;;8.18;2.63;;;;;;;3.55;90.29;99931.28;5042957;28;20045;-74
2021/12/02 02:39:30;;;;;;;7.63;2.80;;;;;;;3.52;90.24;99935.44;5036748;28;20087;-73
2021/12/02 02:42:01;;;;;;;10.77;2.67;;;;;;;3.50;90.47;99931.94;5043796;28;20083;-74
2021/12/02 02:44:28;;;;;;;9.38;2.42;;;;;;;3.48;90.62;99929.31;5041685;28;20087;-74
2021/12/02 02:46:54;;;;;;;7.65;2.28;;;;;;;3.48;90.78;99935.31;5042112;28;20029;-73
2021/12/02 02:49:20;;;;;;;7.95;2.20;;;;;;;3.47;90.39;99931.00;5048561;28;20033;-74
2021/12/02 02:51:46;;;;;;;5.43;2.17;;;;;;;3.48;90.19;99926.75;5039893;28;20107;-74
2021/12/02 02:54:14;;;;;;;6.38;1.90;;;;;;;3.47;89.81;99928.41;5041708;28;20088;-74
2021/12/02 02:56:54;;;;;;;9.93;1.90;;;;;;;3.51;89.63;99925.97;5042486;28;20025;-74
2021/12/02 02:59:36;;;;;;;5.00;1.42;;;;;;;3.51;89.63;99929.41;5069548;28;20021;-74
2021/12/02 03:04:36;;;;;;;10.00;1.77;;;;;;;3.54;89.39;99933.81;5042243;28;20264;-74
2021/12/02 03:07:07;;;;;;;5.20;1.58;;;;;;;3.55;89.58;99938.13;5041428;28;20091;-74
2021/12/02 03:17:10;;;;;;;6.90;1.95;;;;;;;3.51;89.63;99941.44;5038655;28;20036;-74
2021/12/02 03:19:39;;;;;;;8.63;2.55;;;;;;;3.50;89.68;99939.66;5042944;28;20033;-74
2021/12/02 03:22:05;;;;;;;6.53;1.83;;;;;;;3.50;89.76;99952.53;5042675;28;20307;-74
2021/12/02 03:24:30;;;;;;;10.35;2.15;;;;;;;3.49;90.13;99949.09;5042895;28;20029;-74
2021/12/02 03:26:55;;;;;;;5.75;1.92;;;;;;;3.47;89.85;99949.00;5042576;28;20026;-73
2021/12/02 03:29:21;;;;;;;8.27;2.00;;;;;;;3.47;90.16;99950.72;5042444;28;20272;-74
2021/12/02 03:31:46;;;;;;;5.63;2.00;;;;;;;3.46;90.69;99955.00;5042656;28;20028;-74
2021/12/02 03:34:12;;;;;;;13.05;2.08;;;;;;;3.45;90.46;99949.81;5042383;28;20042;-74
2021/12/02 03:36:38;;;;;;;10.38;2.03;;;;;;;3.44;90.38;99954.06;5042259;28;20026;-74
2021/12/02 03:39:05;;;;;;;8.52;1.80;;;;;;;3.47;90.12;99948.16;5042255;28;20067;-74
2021/12/02 03:41:32;;;;;;;7.43;1.42;;;;;;;3.48;89.98;99955.06;5040985;28;20187;-74
2021/12/02 03:43:57;;;;;;;8.02;1.77;;;;;;;3.50;90.47;99956.00;5039385;28;20096;-73
2021/12/02 03:46:24;;;;;;;9.75;1.80;;;;;;;3.51;90.19;99960.31;5037436;28;20188;-74
2021/12/02 03:48:51;;;;;;;11.98;1.75;;;;;;;3.51;90.36;99960.31;5072447;28;20032;-73
2021/12/02 03:51:17;;;;;;;6.68;1.83;;;;;;;3.50;90.16;99958.56;5041157;28;20053;-73
2021/12/02 03:53:43;;;;;;;6.30;1.65;;;;;;;3.51;90.07;99960.31;5040927;28;20045;-75
2021/12/02 03:56:10;;;;;;;6.97;1.70;;;;;;;3.49;90.50;99954.25;5040343;28;20036;-74
2021/12/02 03:58:37;;;;;;;10.57;1.88;;;;;;;3.49;90.21;99956.81;5043476;28;20079;-74
2021/12/02 04:01:04;;;;;;;7.03;1.60;;;;;;;3.49;89.93;99954.25;5032859;28;20037;-74
2021/12/02 04:03:30;;;;;;;6.93;1.60;;;;;;;3.48;89.74;99955.06;5043358;28;20045;-74
2021/12/02 04:05:56;;;;;;;6.32;1.65;;;;;;;3.47;89.58;99951.59;5033904;28;20224;-74
2021/12/02 04:08:28;;;;;;;9.38;1.60;;;;;;;3.46;89.70;99941.22;5041519;28;20097;-74
2021/12/02 04:10:59;;;;;;;7.70;2.10;;;;;;;3.44;89.23;99946.34;5070655;28;20021;-74
2021/12/02 04:13:29;;;;;;;8.77;1.60;;;;;;;3.41;89.51;99942.78;5035704;28;20029;-74
2021/12/02 04:15:59;;;;;;;12.48;1.35;;;;;;;3.41;89.84;99947.94;5034734;28;20032;-74
2021/12/02 04:18:24;;;;;;;7.00;1.33;;;;;;;3.41;89.95;99938.50;5040708;28;20021;-74
2021/12/02 04:20:50;;;;;;;7.72;1.48;;;;;;;3.44;89.95;99940.31;5070280;28;20320;-74
2021/12/02 04:23:15;;;;;;;8.40;1.88;;;;;;;3.43;89.75;99938.56;5034765;28;20299;-74
2021/12/02 04:25:40;;;;;;;5.25;1.50;;;;;;;3.40;89.66;99944.44;5037065;28;20026;-74
2021/12/02 04:28:06;;;;;;;8.85;1.73;;;;;;;3.38;89.41;99947.81;5034880;28;20341;-74
2021/12/02 04:30:31;;;;;;;7.80;1.58;;;;;;;3.35;89.86;99939.97;5034320;28;20045;-74
2021/12/02 04:32:56;;;;;;;7.13;1.48;;;;;;;3.34;89.73;99956.25;5038390;28;20025;-74
2021/12/02 04:35:22;;;;;;;6.47;1.50;;;;;;;3.32;90.05;99966.47;5041693;28;20183;-74
2021/12/02 04:37:51;;;;;;;9.70;1.75;;;;;;;3.31;90.55;99968.16;5039653;28;20029;-74
2021/12/02 04:40:18;;;;;;;5.47;1.40;;;;;;;3.35;90.88;99984.63;5037779;28;20080;-73
2021/12/02 04:42:45;;;;;;;5.43;1.73;;;;;;;3.37;91.44;99987.25;5033268;28;20180;-73
2021/12/02 04:45:11;;;;;;;9.02;1.58;;;;;;;3.37;91.85;99990.69;5040886;28;20052;-73
2021/12/02 04:47:36;;;;;;;6.38;1.08;;;;;;;3.37;90.99;99982.09;5040037;28;20052;-74
2021/12/02 04:50:03;;;;;;;4.57;0.73;;;;;;;3.36;91.50;99993.22;5038965;28;20223;-73
2021/12/02 04:52:28;;;;;;;6.32;0.95;;;;;;;3.35;91.12;99991.47;5068796;28;20038;-73
2021/12/02 04:54:53;;;;;;;5.13;0.90;;;;;;;3.35;91.10;99983.75;5040813;28;20236;-74
2021/12/02 04:57:19;;;;;;;9.30;1.02;;;;;;;3.31;90.70;99988.75;5072263;28;20045;-74
2021/12/02 04:59:44;;;;;;;6.20;1.02;;;;;;;3.29;90.56;99985.25;5039308;28;20210;-74
2021/12/02 05:02:09;;;;;;;4.65;1.15;;;;;;;3.25;89.91;99985.09;5041193;28;20053;-74
2021/12/02 05:04:34;;;;;;;8.13;1.00;;;;;;;3.20;90.03;99987.47;5048998;28;20022;-74
2021/12/02 05:07:00;;;;;;;6.70;0.90;;;;;;;3.19;90.09;99985.72;5040420;28;20076;-74
2021/12/02 05:09:25;;;;;;;8.07;1.20;;;;;;;3.17;90.95;99987.34;5033723;28;20025;-74
2021/12/02 05:11:50;;;;;;;7.18;1.20;;;;;;;3.16;90.99;99990.75;5040576;28;20318;-74
2021/12/02 05:14:16;;;;;;;8.43;1.30;;;;;;;3.15;91.71;99991.56;5040457;28;20029;-74
2021/12/02 05:16:41;;;;;;;9.48;1.70;;;;;;;3.16;92.13;99995.91;5032151;28;20264;-74
2021/12/02 05:19:07;;;;;;;6.60;1.35;;;;;;;3.18;92.35;100012.25;5038006;28;20029;-73
2021/12/02 05:21:32;;;;;;;5.40;1.30;;;;;;;3.20;92.47;100014.91;5038457;28;20341;-73
2021/12/02 05:23:58;;;;;;;10.05;1.77;;;;;;;3.22;92.45;100021.00;5047813;28;20025;-73
2021/12/02 05:26:24;;;;;;;8.80;1.70;;;;;;;3.23;92.80;100025.31;5039405;28;20017;-72
2021/12/02 05:28:50;;;;;;;12.10;1.85;;;;;;;3.22;91.90;100019.28;5041992;28;20032;-72
2021/12/02 05:31:16;;;;;;;5.78;1.40;;;;;;;3.19;91.44;100008.88;5044084;28;20048;-72
2021/12/02 05:33:42;;;;;;;6.28;1.48;;;;;;;3.16;91.11;100013.00;5044593;28;20022;-72
2021/12/02 05:36:08;;;;;;;6.65;1.30;;;;;;;3.11;90.49;100015.41;5040823;28;20048;-73
2021/12/02 05:38:35;;;;;;;9.13;1.60;;;;;;;3.05;90.48;100013.47;5042483;28;20041;-72
2021/12/02 05:41:00;;;;;;;5.00;1.20;;;;;;;2.99;90.44;100012.34;5037484;28;20160;-73
2021/12/02 05:43:25;;;;;;;5.60;1.48;;;;;;;2.91;90.22;100007.78;5041290;28;20033;-73
2021/12/02 05:45:52;;;;;;;5.35;1.48;;;;;;;2.91;90.32;100009.44;5040351;28;20109;-73
2021/12/02 05:48:17;;;;;;;5.28;1.30;;;;;;;2.87;90.69;100013.59;5034806;28;20052;-74
2021/12/02 05:50:42;;;;;;;4.07;1.42;;;;;;;2.87;90.50;100010.13;5064689;28;20045;-73
2021/12/02 05:53:08;;;;;;;5.75;1.60;;;;;;;2.84;90.66;100008.34;5036883;28;20087;-74
2021/12/02 05:55:33;;;;;;;6.53;1.55;;;;;;;2.84;90.85;100033.16;5042284;28;20033;-74
2021/12/02 05:57:58;;;;;;;4.95;1.67;;;;;;;2.82;90.91;100027.09;5044173;28;20087;-73
2021/12/02 06:00:24;;;;;;;3.45;1.00;;;;;;;2.79;90.82;100027.84;5043646;28;20037;-73
2021/12/02 06:02:50;;;;;;;4.15;1.08;;;;;;;2.75;90.31;100015.66;5076581;28;20176;-73
2021/12/02 06:05:21;;;;;;;3.50;0.80;;;;;;;2.71;90.28;100018.91;5044025;28;20296;-73
2021/12/02 06:07:50;;;;;;;7.57;1.88;;;;;;;2.66;90.47;100016.16;5044141;28;20041;-73
2021/12/02 06:10:16;;;;;;;3.03;0.60;;;;;;;2.61;89.58;100013.41;5045783;28;20025;-73
2021/12/02 06:12:42;;;;;;;2.38;0.50;;;;;;;2.56;89.08;100012.34;5038718;28;20021;-74
2021/12/02 06:15:08;;;;;;;3.72;0.70;;;;;;;2.53;89.11;100009.63;5042026;28;20060;-74
2021/12/02 06:17:33;;;;;;;4.13;0.50;;;;;;;2.50;89.67;100018.91;5043070;28;20032;-74
2021/12/02 06:19:58;;;;;;;2.45;0.43;;;;;;;2.48;89.46;100005.09;5043538;28;20078;-74
2021/12/02 06:22:24;;;;;;;3.10;0.50;;;;;;;2.44;89.30;100019.53;5040774;28;20288;-74
2021/12/02 06:25:06;;;;;;;3.08;0.63;;;;;;;2.40;89.38;100027.91;5040425;28;20037;-74
2021/12/02 06:27:31;;;;;;;3.03;0.47;;;;;;;2.37;88.96;100025.22;5042258;28;20049;-74
2021/12/02 06:29:57;;;;;;;3.22;0.60;;;;;;;2.34;89.58;100033.66;5042938;28;20064;-74
2021/12/02 06:32:22;;;;;;;4.82;1.05;;;;;;;2.35;89.88;100039.72;5042075;28;20029;-74
2021/12/02 06:34:47;;;;;;;3.25;1.25;;;;;;;2.33;89.88;100031.94;5042385;28;20096;-74
2021/12/02 06:37:12;;;;;;;5.00;1.13;;;;;;;2.33;89.97;100031.94;5039019;28;20091;-74
2021/12/02 06:39:38;;;;;;;3.70;0.80;;;;;;;2.32;90.55;100026.69;5034960;28;20026;-74
2021/12/02 06:42:03;;;;;;;4.78;0.80;;;;;;;2.33;90.48;100031.94;5042417;28;20046;-74
2021/12/02 06:44:29;;;;;;;1.77;0.60;;;;;;;2.35;90.68;100030.28;5067259;28;20520;-74
2021/12/02 06:46:55;;;;;;;4.75;0.80;;;;;;;2.35;90.52;100032.00;5043151;28;20041;-74
2021/12/02 06:49:21;;;;;;;2.10;0.70;;;;;;;2.35;90.69;100040.56;5043162;28;20064;-74
2021/12/02 06:51:46;;;;;;;5.45;0.70;;;;;;;2.35;91.05;100050.00;5041329;28;20021;-74
2021/12/02 06:54:11;;;;;;;3.53;0.73;;;;;;;2.36;91.64;100065.47;5043178;28;20038;-73
2021/12/02 06:56:37;;;;;;;2.78;0.70;;;;;;;2.38;92.03;100076.69;5042732;28;20028;-73
2021/12/02 06:59:02;;;;;;;3.13;1.00;;;;;;;2.40;91.93;100074.19;5039428;28;20056;-73
2021/12/02 07:01:27;;;;;;;4.28;1.00;;;;;;;2.39;91.45;100078.47;5039375;28;20036;-73
2021/12/02 07:03:53;;;;;;;3.55;0.90;;;;;;;2.39;90.90;100075.00;5027695;28;20168;-72
2021/12/02 07:06:18;;;;;;;3.83;1.33;;;;;;;2.33;90.56;100075.63;5068605;28;20021;-73
2021/12/02 07:08:43;;;;;;;5.28;1.40;;;;;;;2.28;90.93;100082.25;5042511;28;20088;-72
2021/12/02 07:11:10;;;;;;;5.95;1.20;;;;;;;2.24;90.83;100080.34;5042678;28;20092;-73
2021/12/02 07:13:37;;;;;;;7.55;1.90;;;;;;;2.23;91.16;100076.00;5042582;28;20276;-73
2021/12/02 07:16:03;;;;;;;4.55;1.63;;;;;;;2.23;91.91;100076.00;5042580;28;20056;-73
2021/12/02 07:18:34;;;;;;;5.78;1.90;;;;;;;2.24;91.93;100078.63;5042658;28;20025;-73
2021/12/02 07:20:59;;;;;;;6.15;1.63;;;;;;;2.29;92.36;100083.09;5075224;28;20276;-73
2021/12/02 07:23:25;;;;;;;6.38;1.85;;;;;;;2.31;92.55;100096.94;5075374;28;20101;-73
2021/12/02 07:25:50;;;;;;;6.03;1.67;;;;;;;2.32;92.91;100096.09;5043960;28;20085;-73
2021/12/02 07:28:17;;;;;;;5.53;1.88;;;;;;;2.35;92.67;100102.28;5042581;28;20029;-73
2021/12/02 07:30:44;;;;;;;6.80;1.80;;;;;;;2.39;92.66;100103.28;5042434;28;20021;-73
2021/12/02 07:33:10;;;;;;;6.80;1.70;;;;;;;2.44;93.17;100104.38;5042610;28;20037;-73
2021/12/02 07:35:36;;;;;;;5.10;1.58;;;;;;;2.48;92.77;100102.78;5042194;28;20084;-73
2021/12/02 07:38:02;;;;;;;6.38;2.00;;;;;;;2.48;92.54;100106.25;5040768;28;20106;-73
2021/12/02 07:40:33;;;;;;;5.55;1.77;;;;;;;2.47;91.77;100104.50;5038531;28;20364;-74
2021/12/02 07:42:59;;;;;;;6.35;2.50;;;;;;;2.47;91.77;100106.19;5037542;28;20057;-73
2021/12/02 07:45:27;;;;;;;7.82;2.65;;;;;;;2.46;91.47;100110.44;5036600;28;20041;-73
2021/12/02 07:47:53;;;;;;;9.85;2.60;;;;;;;2.44;91.42;100112.94;5038469;28;20272;-73
2021/12/02 07:50:20;;;;;;;7.10;2.50;;;;;;;2.44;91.82;100106.94;5040375;28;20044;-74
2021/12/02 07:52:51;;;;;;;5.35;1.95;;;;;;;2.44;91.65;100112.09;5038206;28;20028;-73
2021/12/02 07:55:18;;;;;;;8.98;2.17;;;;;;;2.44;91.19;100112.09;5035435;28;20180;-73
2021/12/02 07:57:45;;;;;;;6.88;2.60;;;;;;;2.42;91.25;100109.44;5042060;28;20040;-74
2021/12/02 08:00:13;;;;;;;16.35;3.75;;;;;;;2.42;91.10;100113.72;5038470;28;20045;-73
2021/12/02 08:02:42;;;;;;;20.88;6.22;;;;;;;2.41;91.03;100117.97;5035733;28;20049;-74
2021/12/02 08:05:08;;;;;;;12.68;2.80;;;;;;;2.41;90.75;100122.22;5039182;28;20084;-74
2021/12/02 08:07:33;;;;;;;6.75;1.98;;;;;;;2.38;91.30;100122.09;5039273;28;20037;-74
2021/12/02 08:09:58;;;;;;;8.75;2.00;;;;;;;2.38;90.68;100129.81;5040027;28;20030;-74
2021/12/02 08:12:24;;;;;;;5.82;2.03;;;;;;;2.39;91.19;100136.69;5036542;28;20097;-73
2021/12/02 08:14:50;;;;;;;6.13;1.80;;;;;;;2.38;91.31;100138.41;5037704;28;20082;-74
2021/12/02 08:17:16;;;;;;;5.40;1.83;;;;;;;2.39;91.24;100135.03;5031387;28;20029;-74
2021/12/02 08:19:42;;;;;;;6.50;2.40;;;;;;;2.39;91.07;100139.25;5069794;28;20052;-73
2021/12/02 08:22:07;;;;;;;7.70;2.65;;;;;;;2.37;90.88;100141.78;5036411;28;20025;-73
2021/12/02 08:24:33;;;;;;;7.70;2.47;;;;;;;2.35;91.04;100138.25;5035308;28;20126;-73
2021/12/02 08:26:58;;;;;;;6.60;2.80;;;;;;;2.34;90.99;100138.19;5030193;28;20032;-74
2021/12/02 08:29:23;;;;;;;14.07;3.67;;;;;;;2.33;90.68;100141.56;5032736;28;20053;-74
2021/12/02 08:31:49;;;;;;;7.00;2.83;;;;;;;2.32;91.18;100140.69;5027788;28;20034;-74
2021/12/02 08:34:16;;;;;;;6.82;3.00;;;;;;;2.34;91.13;100145.91;5037866;28;20499;-74
2021/12/02 08:36:46;;;;;;;9.13;3.65;;;;;;;2.38;90.96;100142.66;5034354;28;20053;-73
2021/12/02 08:39:17;;;;;;;9.35;4.20;;;;;;;2.42;90.98;100149.72;5031504;28;20026;-74
2021/12/02 08:41:46;;;;;;;10.77;4.20;;;;;;;2.47;90.74;100148.22;5036702;28;20331;-74
2021/12/02 08:44:13;;;;;;;12.90;3.72;;;;;;;2.52;90.09;100144.16;5029611;28;20033;-73
2021/12/02 08:46:38;;;;;;;9.05;3.55;;;;;;;2.55;90.61;100162.31;5037228;28;20030;-73
2021/12/02 08:49:04;;;;;;;11.38;4.05;;;;;;;2.58;89.98;100179.56;5029829;28;20037;-73
2021/12/02 08:51:29;;;;;;;13.73;4.03;;;;;;;2.66;90.78;100180.78;5035686;28;20113;-73
2021/12/02 08:53:54;;;;;;;11.93;4.05;;;;;;;2.74;90.74;100182.00;5034492;28;20184;-73
2021/12/02 08:56:20;;;;;;;13.55;3.90;;;;;;;2.86;90.57;100193.66;5026551;28;20324;-73
2021/12/02 08:58:45;;;;;;;9.85;3.50;;;;;;;2.91;91.29;100203.34;5041992;28;20147;-73
2021/12/02 09:01:10;;;;;;;10.73;2.88;;;;;;;2.92;90.76;100214.50;5036363;28;20287;-73
2021/12/02 09:03:37;;;;;;;10.88;2.92;;;;;;;2.91;92.00;100223.91;5075446;28;20060;-73
2021/12/02 09:06:03;;;;;;;9.18;2.92;;;;;;;2.90;92.03;100227.28;5043631;28;20068;-73
2021/12/02 09:08:28;;;;;;;9.35;3.20;;;;;;;2.90;92.25;100227.28;5043432;28;20088;-72
2021/12/02 09:10:56;;;;;;;8.98;3.15;;;;;;;2.89;91.89;100228.09;5042077;28;20319;-73
2021/12/02 09:13:22;;;;;;;9.48;2.90;;;;;;;2.88;91.52;100220.31;5043250;28;20088;-72
2021/12/02 09:15:48;;;;;;;11.88;3.38;;;;;;;2.87;91.32;100224.59;5044277;28;20018;-73
2021/12/02 09:18:13;;;;;;;6.35;2.85;;;;;;;2.87;91.11;100232.31;5044176;28;20052;-73
2021/12/02 09:20:39;;;;;;;7.13;2.72;;;;;;;2.85;90.89;100233.03;5043922;28;20091;-72
2021/12/02 09:23:04;;;;;;;10.82;3.15;;;;;;;2.82;91.44;100238.06;5044238;28;20121;-73
2021/12/02 09:25:29;;;;;;;10.57;4.10;;;;;;;2.83;91.60;100244.97;5045110;28;20242;-73
2021/12/02 09:27:55;;;;;;;11.27;3.22;;;;;;;2.81;91.75;100246.56;5045568;28;20208;-73
2021/12/02 09:30:20;;;;;;;10.68;3.33;;;;;;;2.80;91.83;100250.84;5045000;28;20264;-73
2021/12/02 09:32:45;;;;;;;8.15;3.33;;;;;;;2.80;92.21;100252.56;5038054;28;20032;-73
2021/12/02 09:35:11;;;;;;;10.85;3.33;;;;;;;2.80;91.88;100250.84;5040170;28;20032;-73
2021/12/02 09:37:37;;;;;;;8.85;3.35;;;;;;;2.80;91.99;100252.56;5033613;28;20044;-73
2021/12/02 09:40:05;;;;;;;13.30;3.53;;;;;;;2.82;92.26;100254.38;5033702;28;20196;-73
2021/12/02 09:42:31;;;;;;;10.65;3.67;;;;;;;2.84;92.03;100247.63;5041709;28;20088;-73
2021/12/02 09:45:00;;;;;;;8.57;3.35;;;;;;;2.88;92.75;100256.34;5042990;28;20065;-73
2021/12/02 09:47:31;;;;;;;11.85;3.90;;;;;;;2.93;92.88;100257.44;5043468;28;20029;-73
2021/12/02 09:50:02;;;;;;;8.45;3.08;;;;;;;2.99;91.91;100256.84;5042812;28;20037;-73
2021/12/02 09:52:35;;;;;;;10.93;3.42;;;;;;;3.01;91.67;100247.47;5044349;28;20068;-73
2021/12/02 09:55:07;;;;;;;9.07;3.00;;;;;;;3.06;92.22;100253.72;5045274;28;20034;-73
2021/12/02 09:57:45;;;;;;;9.50;3.00;;;;;;;3.12;91.40;100246.25;5052917;28;20088;-73
2021/12/02 10:00:17;;;;;;;10.90;3.40;;;;;;;3.15;91.10;100245.53;5048614;28;20107;-73
2021/12/02 10:02:51;;;;;;;11.15;3.20;;;;;;;3.17;90.99;100249.03;5077020;28;20033;-74
2021/12/02 10:05:28;;;;;;;9.50;3.75;;;;;;;3.17;91.11;100241.31;5044572;28;20046;-73
2021/12/02 10:08:00;;;;;;;9.85;3.10;;;;;;;3.17;90.46;100246.44;5044258;28;20021;-73
2021/12/02 10:10:32;;;;;;;10.90;3.33;;;;;;;3.18;90.43;100249.09;5044823;28;20029;-73
2021/12/02 10:13:26;;;;;;;9.57;2.97;;;;;;;3.21;91.17;100258.66;5043654;28;20024;-73
2021/12/02 10:16:03;;;;;;;9.98;2.75;;;;;;;3.28;91.23;100263.25;5076833;28;20028;-73
2021/12/02 10:18:38;;;;;;;10.20;3.40;;;;;;;3.34;90.74;100260.06;5044516;28;20172;-73
2021/12/02 10:21:17;;;;;;;8.27;2.90;;;;;;;3.36;90.86;100258.44;5044640;28;20111;-73
2021/12/02 10:23:46;;;;;;;;;;;;;;;3.41;90.87;100270.69;5043151;28;20138;-73
2021/12/02 10:26:13;;;;;;;10.00;2.83;;;;;;;3.40;92.15;100271.50;5044399;28;19905;-73
2021/12/02 10:28:42;;;;;;;9.25;2.40;;;;;;;3.41;91.59;100269.81;5043076;28;20018;-73
2021/12/02 10:31:09;;;;;;;8.10;2.47;;;;;;;3.43;91.86;100275.91;5044305;28;20268;-73
2021/12/02 10:33:41;;;;;;;8.13;2.00;;;;;;;3.45;91.63;100280.31;5043023;28;20032;-73
2021/12/02 10:36:27;;;;;;;7.90;1.92;;;;;;;3.47;91.77;100275.22;5044153;28;20171;-73
2021/12/02 10:38:54;;;;;;;9.93;2.42;;;;;;;3.48;91.32;100279.56;5044117;28;20053;-73
2021/12/02 10:41:23;;;;;;;8.27;2.22;;;;;;;3.49;91.89;100283.91;5076253;28;20041;-73
2021/12/02 10:44:08;;;;;;;6.85;2.28;;;;;;;3.54;91.81;100291.84;5044338;28;20027;-73
2021/12/02 10:46:36;;;;;;;8.40;2.53;;;;;;;3.56;91.42;100291.06;5043918;28;20026;-73
2021/12/02 10:49:03;;;;;;;6.13;2.30;;;;;;;3.57;91.52;100292.84;5043930;28;20036;-73
2021/12/02 10:51:38;;;;;;;9.80;3.00;;;;;;;3.58;91.64;100292.03;5043413;28;20052;-73
2021/12/02 10:54:13;;;;;;;7.05;2.50;;;;;;;3.60;91.30;100292.09;5042238;28;20128;-73
2021/12/02 10:56:42;;;;;;;8.18;2.60;;;;;;;3.67;91.61;100299.25;5040815;28;20295;-73
2021/12/02 10:59:44;;;;;;;7.82;2.97;;;;;;;3.79;91.41;100296.31;5075942;28;20029;-73
2021/12/02 11:02:29;;;;;;;10.25;2.58;;;;;;;3.93;91.75;100302.94;5042811;28;20097;-73
2021/12/02 11:05:04;;;;;;;8.35;2.33;;;;;;;4.02;91.26;100299.84;5042516;28;20117;-74
2021/12/02 11:07:33;;;;;;;9.20;2.38;;;;;;;4.09;90.40;100303.56;5043601;28;20021;-74
2021/12/02 11:10:03;;;;;;;5.47;1.90;;;;;;;4.14;90.36;100308.09;5049933;28;20074;-74
2021/12/02 11:12:34;;;;;;;6.85;2.10;;;;;;;4.15;90.09;100301.25;5049027;28;20021;-74
2021/12/02 11:15:01;;;;;;;7.93;2.20;;;;;;;4.11;88.79;100309.66;5043505;28;20025;-74
2021/12/02 11:17:30;;;;;;;6.85;1.95;;;;;;;4.02;87.70;100304.13;5043588;28;20068;-74
2021/12/02 11:19:57;;;;;;;5.90;2.67;;;;;;;3.95;89.00;100309.06;5043000;28;20045;-74
2021/12/02 11:22:25;;;;;;;8.68;3.13;;;;;;;3.89;88.66;100308.78;5043458;28;20030;-74
2021/12/02 11:24:51;;;;;;;9.60;2.38;;;;;;;3.87;89.13;100310.41;5043157;28;20022;-74
2021/12/02 11:27:44;;;;;;;7.05;2.45;;;;;;;3.86;88.97;100318.09;5041837;28;20036;-74
2021/12/02 11:30:12;;;;;;;8.25;2.35;;;;;;;3.85;89.00;100306.00;5041250;28;20295;-74
2021/12/02 11:32:44;;;;;;;8.70;2.40;;;;;;;3.83;89.19;100301.66;5042974;28;20207;-74
2021/12/02 11:35:20;;;;;;;6.80;2.03;;;;;;;3.88;90.83;100311.28;5038661;28;20074;-74
2021/12/02 11:37:50;;;;;;;6.30;1.80;;;;;;;3.97;91.41;100322.88;5039899;28;20053;-74
2021/12/02 11:40:25;;;;;;;9.60;2.17;;;;;;;4.05;90.87;100319.72;5034483;28;20108;-74
2021/12/02 11:42:51;;;;;;;6.85;1.73;;;;;;;4.10;90.53;100331.09;5033844;28;20252;-74
2021/12/02 11:45:19;;;;;;;5.47;1.60;;;;;;;4.17;91.21;100323.69;5034718;28;20101;-74
2021/12/02 11:47:45;;;;;;;5.82;2.00;;;;;;;4.24;90.33;100322.22;5053488;28;20024;-74
2021/12/02 11:50:12;;;;;;;4.72;1.80;;;;;;;4.29;90.07;100317.28;5037196;28;20088;-74
2021/12/02 11:52:39;;;;;;;8.70;1.75;;;;;;;4.32;89.24;100318.28;5042706;28;20029;-74